createdAt,value
2019-02-24T00:02:04.001Z,7.67
2019-02-24T00:04:33.234Z,8.20
2019-02-24T00:07:03.590Z,11.13
2019-02-24T00:09:34.466Z,8.50
2019-02-24T00:12:03.576Z,8.20
2019-02-24T00:14:32.645Z,7.37
2019-02-24T00:17:02.002Z,8.37
2019-02-24T00:19:31.067Z,8.67
2019-02-24T00:22:00.012Z,9.30
2019-02-24T00:24:28.935Z,8.77
2019-02-24T00:26:58.090Z,8.17
2019-02-24T00:29:27.003Z,9.80
2019-02-24T00:31:56.387Z,7.63
2019-02-24T00:34:25.569Z,9.07
2019-02-24T00:36:55.110Z,7.40
2019-02-24T00:39:24.387Z,6.90
2019-02-24T00:41:53.558Z,8.17
2019-02-24T00:44:22.466Z,7.87
2019-02-24T00:46:54.030Z,8.33
2019-02-24T00:49:25.564Z,8.77
2019-02-24T00:51:54.725Z,7.67
2019-02-24T00:54:23.752Z,8.00
2019-02-24T00:56:52.713Z,8.80
2019-02-24T00:59:26.676Z,7.97
2019-02-24T01:01:55.744Z,8.50
2019-02-24T01:04:24.667Z,8.10
2019-02-24T01:06:53.544Z,9.13
2019-02-24T01:09:39.043Z,8.20
2019-02-24T01:12:08.034Z,7.80
2019-02-24T01:14:37.494Z,8.70
2019-02-24T01:17:07.254Z,8.67
2019-02-24T01:19:36.312Z,8.03
2019-02-24T01:22:05.310Z,8.70
2019-02-24T01:24:36.169Z,8.87
2019-02-24T01:27:05.166Z,10.03
2019-02-24T01:29:57.611Z,8.70
2019-02-24T01:32:26.705Z,9.53
2019-02-24T01:34:59.533Z,9.53
2019-02-24T01:37:28.550Z,10.50
2019-02-24T01:39:57.401Z,8.87
2019-02-24T01:42:26.317Z,8.33
2019-02-24T01:44:55.991Z,10.07
2019-02-24T01:47:25.277Z,10.00
2019-02-24T01:49:54.192Z,8.43
2019-02-24T01:52:23.555Z,10.00
2019-02-24T01:54:54.645Z,9.70
2019-02-24T01:57:23.501Z,9.63
2019-02-24T01:59:55.090Z,10.30
2019-02-24T02:02:23.948Z,9.13
2019-02-24T02:04:52.830Z,10.00
2019-02-24T02:07:24.550Z,10.43
2019-02-24T02:10:04.002Z,10.67
2019-02-24T02:12:32.968Z,9.03
2019-02-24T02:15:01.818Z,8.87
2019-02-24T02:17:30.778Z,10.10
2019-02-24T02:20:00.386Z,10.27
2019-02-24T02:22:29.247Z,10.43
2019-02-24T02:25:02.183Z,10.27
2019-02-24T02:27:31.275Z,10.57
2019-02-24T02:30:03.651Z,9.37
2019-02-24T02:32:34.499Z,11.30
2019-02-24T02:35:03.493Z,11.00
2019-02-24T02:37:32.470Z,11.13
2019-02-24T02:40:03.878Z,11.70
2019-02-24T02:42:33.308Z,10.90
2019-02-24T02:45:02.318Z,10.77
2019-02-24T02:47:31.436Z,10.97
2019-02-24T02:50:00.626Z,12.10
2019-02-24T02:52:29.625Z,10.13
2019-02-24T02:54:59.214Z,11.10
2019-02-24T02:57:29.152Z,10.53
2019-02-24T02:59:58.254Z,10.30
2019-02-24T03:02:27.615Z,11.80
2019-02-24T03:04:56.870Z,10.80
2019-02-24T03:07:43.691Z,11.20
2019-02-24T03:10:12.678Z,10.90
2019-02-24T03:12:43.558Z,10.67
2019-02-24T03:15:13.942Z,11.27
2019-02-24T03:17:43.763Z,12.73
2019-02-24T03:20:12.581Z,11.93
2019-02-24T03:22:41.509Z,10.00
2019-02-24T03:25:10.559Z,11.33
2019-02-24T03:27:39.577Z,11.20
2019-02-24T03:30:09.147Z,10.70
2019-02-24T03:32:37.972Z,10.37
2019-02-24T03:35:07.177Z,10.57
2019-02-24T03:37:36.192Z,12.67
2019-02-24T03:40:10.983Z,12.10
2019-02-24T03:42:42.899Z,10.30
2019-02-24T03:45:12.588Z,12.20
2019-02-24T03:47:42.114Z,12.80
2019-02-24T03:50:16.638Z,11.40
2019-02-24T03:52:45.620Z,10.73
2019-02-24T03:55:14.857Z,10.30
2019-02-24T03:57:43.961Z,12.93
2019-02-24T04:00:18.231Z,11.07
2019-02-24T04:02:47.135Z,12.83
2019-02-24T04:05:16.077Z,10.53
2019-02-24T04:07:45.869Z,12.00
2019-02-24T04:10:14.845Z,11.07
2019-02-24T04:12:46.195Z,10.70
2019-02-24T04:15:16.521Z,11.63
2019-02-24T04:17:45.564Z,12.63
2019-02-24T04:20:14.865Z,10.53
2019-02-24T04:22:43.745Z,12.07
2019-02-24T04:25:14.164Z,12.53
2019-02-24T04:27:43.484Z,11.10
2019-02-24T04:30:12.737Z,10.17
2019-02-24T04:32:42.067Z,10.70
2019-02-24T04:35:11.346Z,10.37
2019-02-24T04:37:40.277Z,12.97
2019-02-24T04:40:09.439Z,13.43
2019-02-24T04:42:39.182Z,11.50
2019-02-24T04:45:08.201Z,12.17
2019-02-24T04:47:37.122Z,11.40
2019-02-24T04:50:06.358Z,12.00
2019-02-24T04:52:36.961Z,11.47
2019-02-24T04:55:07.436Z,11.80
2019-02-24T04:57:38.828Z,10.53
2019-02-24T05:00:13.329Z,10.00
2019-02-24T05:02:42.409Z,11.63
2019-02-24T05:05:11.501Z,11.23
2019-02-24T05:07:40.824Z,12.03
2019-02-24T05:10:14.211Z,11.23
2019-02-24T05:12:44.855Z,11.97
2019-02-24T05:15:14.226Z,10.80
2019-02-24T05:17:43.465Z,10.80
2019-02-24T05:20:14.976Z,10.73
2019-02-24T05:22:47.643Z,10.53
2019-02-24T05:25:16.638Z,11.73
2019-02-24T05:27:49.524Z,11.17
2019-02-24T05:30:18.740Z,10.43
2019-02-24T05:32:47.910Z,10.77
2019-02-24T05:35:17.127Z,10.80
2019-02-24T05:37:46.247Z,11.17
2019-02-24T05:40:15.744Z,10.63
2019-02-24T05:42:44.629Z,12.93
2019-02-24T05:45:13.967Z,11.93
2019-02-24T05:47:43.057Z,11.83
2019-02-24T05:50:12.846Z,11.00
2019-02-24T05:52:41.830Z,12.40
2019-02-24T05:55:10.681Z,11.03
2019-02-24T05:57:39.583Z,12.03
2019-02-24T06:00:08.993Z,12.47
2019-02-24T06:02:37.880Z,13.13
2019-02-24T06:05:07.598Z,11.67
2019-02-24T06:07:36.635Z,11.27
2019-02-24T06:10:30.103Z,11.40
2019-02-24T06:12:59.402Z,12.53
2019-02-24T06:15:28.637Z,11.90
2019-02-24T06:17:57.660Z,14.80
2019-02-24T06:20:26.896Z,13.03
2019-02-24T06:22:55.809Z,11.37
2019-02-24T06:25:24.719Z,11.77
2019-02-24T06:27:53.841Z,11.03
2019-02-24T06:30:26.425Z,11.67
2019-02-24T06:32:56.033Z,13.80
2019-02-24T06:35:28.120Z,11.27
2019-02-24T06:37:56.962Z,12.30
2019-02-24T06:40:26.119Z,11.43
2019-02-24T06:42:55.101Z,11.87
2019-02-24T06:45:24.022Z,15.13
2019-02-24T06:47:54.285Z,11.47
2019-02-24T06:51:05.709Z,14.07
2019-02-24T06:53:35.388Z,11.77
2019-02-24T06:56:06.123Z,13.50
2019-02-24T06:58:35.271Z,13.20
2019-02-24T07:01:04.425Z,12.77
2019-02-24T07:03:33.656Z,13.53
2019-02-24T07:06:02.657Z,12.20
2019-02-24T07:08:49.230Z,14.93
2019-02-24T07:11:18.222Z,13.63
2019-02-24T07:13:47.413Z,13.17
2019-02-24T07:16:16.438Z,15.60
2019-02-24T07:18:56.911Z,13.57
2019-02-24T07:21:27.241Z,13.13
2019-02-24T07:23:56.112Z,13.73
2019-02-24T07:26:25.527Z,12.37
2019-02-24T07:29:25.013Z,13.73
2019-02-24T07:31:54.559Z,13.27
2019-02-24T07:34:23.548Z,12.27
2019-02-24T07:36:52.692Z,13.50
2019-02-24T07:39:21.931Z,13.17
2019-02-24T07:41:51.034Z,13.17
2019-02-24T07:44:20.059Z,14.00
2019-02-24T07:46:49.035Z,14.30
2019-02-24T07:49:27.299Z,13.83
2019-02-24T07:51:57.618Z,14.30
2019-02-24T07:54:28.517Z,13.17
2019-02-24T07:56:58.935Z,15.00
2019-02-24T07:59:28.012Z,14.13
2019-02-24T08:02:04.402Z,17.07
2019-02-24T08:04:35.102Z,14.13
2019-02-24T08:07:04.426Z,14.67
2019-02-24T08:09:34.366Z,13.10
2019-02-24T08:12:03.463Z,13.37
2019-02-24T08:14:32.402Z,12.50
2019-02-24T08:17:01.546Z,14.10
2019-02-24T08:20:06.579Z,14.37
2019-02-24T08:22:35.722Z,12.77
2019-02-24T08:25:06.767Z,12.53
2019-02-24T08:27:37.363Z,12.43
2019-02-24T08:30:07.994Z,12.57
2019-02-24T08:32:37.972Z,14.87
2019-02-24T08:35:07.812Z,13.27
2019-02-24T08:37:38.594Z,13.20
2019-02-24T08:40:09.940Z,12.87
2019-02-24T08:42:39.646Z,14.73
2019-02-24T08:45:10.775Z,14.50
2019-02-24T08:47:43.435Z,13.77
2019-02-24T08:50:13.853Z,13.37
2019-02-24T08:52:43.312Z,14.87
2019-02-24T08:55:13.021Z,12.90
2019-02-24T08:57:43.569Z,14.13
2019-02-24T09:00:13.390Z,13.03
2019-02-24T09:03:07.062Z,14.40
2019-02-24T09:05:38.082Z,13.50
2019-02-24T09:08:18.146Z,12.80
2019-02-24T09:10:51.234Z,13.90
2019-02-24T09:13:21.635Z,14.27
2019-02-24T09:15:50.723Z,14.67
2019-02-24T09:18:20.260Z,14.17
2019-02-24T09:20:49.758Z,13.87
2019-02-24T09:23:23.238Z,15.63
2019-02-24T09:25:53.447Z,15.60
2019-02-24T09:28:24.241Z,14.47
2019-02-24T09:31:00.429Z,15.43
2019-02-24T09:33:25.590Z,14.53
2019-02-24T09:35:55.679Z,16.47
2019-02-24T09:38:34.696Z,15.87
2019-02-24T09:41:04.379Z,14.03
2019-02-24T09:43:34.030Z,16.33
2019-02-24T09:46:03.717Z,14.63
2019-02-24T09:48:33.464Z,13.93
2019-02-24T09:51:03.464Z,16.10
2019-02-24T09:53:32.526Z,15.47
2019-02-24T09:56:01.549Z,14.23
2019-02-24T09:58:49.779Z,15.20
2019-02-24T10:01:18.849Z,15.57
2019-02-24T10:03:48.005Z,15.33
2019-02-24T10:06:19.454Z,15.83
2019-02-24T10:08:59.488Z,16.10
2019-02-24T10:11:32.152Z,15.20
2019-02-24T10:14:01.067Z,15.10
2019-02-24T10:16:30.219Z,17.70
2019-02-24T10:18:59.933Z,16.20
2019-02-24T10:21:29.097Z,16.17
2019-02-24T10:24:00.149Z,16.40
2019-02-24T10:26:30.297Z,14.93
2019-02-24T10:29:15.887Z,17.50
2019-02-24T10:31:45.753Z,18.57
2019-02-24T10:34:15.796Z,16.60
2019-02-24T10:36:48.542Z,15.53
2019-02-24T10:39:17.856Z,16.50
2019-02-24T10:41:47.230Z,15.93
2019-02-24T10:44:16.451Z,16.80
2019-02-24T10:46:45.552Z,15.77
2019-02-24T10:49:17.993Z,15.50
2019-02-24T10:51:47.493Z,15.53
2019-02-24T10:54:17.303Z,17.57
2019-02-24T10:56:50.426Z,15.50
2019-02-24T10:59:22.951Z,16.97
2019-02-24T11:01:54.277Z,17.50
2019-02-24T11:04:23.684Z,17.20
2019-02-24T11:07:03.175Z,18.57
2019-02-24T11:09:35.058Z,18.20
2019-02-24T11:12:05.378Z,19.87
2019-02-24T11:14:37.745Z,18.20
2019-02-24T11:17:08.553Z,18.50
2019-02-24T11:19:38.128Z,21.57
2019-02-24T11:22:09.313Z,18.37
2019-02-24T11:24:38.392Z,18.87
2019-02-24T11:27:13.244Z,17.50
2019-02-24T11:29:45.009Z,18.97
2019-02-24T11:32:15.658Z,21.97
2019-02-24T11:34:46.095Z,19.60
2019-02-24T11:37:16.797Z,16.43
2019-02-24T11:39:47.117Z,15.40
2019-02-24T11:42:21.518Z,15.23
2019-02-24T11:44:50.854Z,17.50
2019-02-24T11:47:24.330Z,17.57
2019-02-24T11:49:54.834Z,17.03
2019-02-24T11:52:23.958Z,15.80
2019-02-24T11:54:52.937Z,16.43
2019-02-24T11:57:22.049Z,17.47
2019-02-24T12:00:15.375Z,17.10
2019-02-24T12:02:45.779Z,17.10
2019-02-24T12:05:15.578Z,16.70
2019-02-24T12:07:44.702Z,16.33
2019-02-24T12:10:43.905Z,23.07
2019-02-24T12:13:14.317Z,18.93
2019-02-24T12:15:44.119Z,17.43
2019-02-24T12:18:14.027Z,19.07
2019-02-24T12:20:47.710Z,18.17
2019-02-24T12:23:16.859Z,18.07
2019-02-24T12:25:46.573Z,20.87
2019-02-24T12:28:15.944Z,18.37
2019-02-24T12:30:45.594Z,20.07
2019-02-24T12:33:16.597Z,21.50
2019-02-24T12:35:45.882Z,19.13
2019-02-24T12:38:15.237Z,19.33
2019-02-24T12:40:44.693Z,20.17
2019-02-24T12:43:14.032Z,20.33
2019-02-24T12:45:45.211Z,18.70
2019-02-24T12:48:16.369Z,18.13
2019-02-24T12:50:46.226Z,20.50
2019-02-24T12:53:16.598Z,20.37
2019-02-24T12:55:46.918Z,20.83
2019-02-24T12:58:17.647Z,19.93
2019-02-24T13:00:46.841Z,20.93
2019-02-24T13:03:23.742Z,20.87
2019-02-24T13:05:46.846Z,20.73
2019-02-24T13:08:15.749Z,28.37
2019-02-24T13:10:44.838Z,21.10
2019-02-24T13:13:13.850Z,21.47
2019-02-24T13:15:42.933Z,19.63
2019-02-24T13:18:12.039Z,20.03
2019-02-24T13:20:41.033Z,22.27
2019-02-24T13:23:10.732Z,20.20
2019-02-24T13:25:39.842Z,20.83
2019-02-24T13:28:09.208Z,21.70
2019-02-24T13:30:40.865Z,21.50
2019-02-24T13:33:09.809Z,19.30
2019-02-24T13:35:40.588Z,20.77
2019-02-24T13:38:11.910Z,21.27
2019-02-24T13:40:41.504Z,19.77
2019-02-24T13:43:12.808Z,19.43
2019-02-24T13:45:41.983Z,19.10
2019-02-24T13:48:11.004Z,21.77
2019-02-24T13:50:40.936Z,21.10
2019-02-24T13:53:10.102Z,21.90
2019-02-24T13:55:39.093Z,21.40
2019-02-24T13:58:09.238Z,19.13
2019-02-24T14:00:40.573Z,20.17
2019-02-24T14:03:10.073Z,19.37
2019-02-24T14:05:39.036Z,19.57
2019-02-24T14:08:08.270Z,19.40
2019-02-24T14:10:37.745Z,21.33
2019-02-24T14:13:07.932Z,20.07
2019-02-24T14:15:36.952Z,19.93
2019-02-24T14:18:06.866Z,19.60
2019-02-24T14:20:35.910Z,20.17
2019-02-24T14:23:05.263Z,19.80
2019-02-24T14:25:34.542Z,21.07
2019-02-24T14:28:03.574Z,20.03
2019-02-24T14:30:32.446Z,21.97
2019-02-24T14:33:01.319Z,19.90
2019-02-24T14:35:31.451Z,20.07
2019-02-24T14:38:00.365Z,21.50
2019-02-24T14:40:30.269Z,21.17
2019-02-24T14:42:59.470Z,21.97
2019-02-24T14:45:28.505Z,20.97
2019-02-24T14:47:57.585Z,20.03
2019-02-24T14:50:26.482Z,22.77
2019-02-24T14:52:55.513Z,20.60
2019-02-24T14:55:24.602Z,22.33
2019-02-24T14:57:54.134Z,20.83
2019-02-24T15:00:23.272Z,24.07
2019-02-24T15:02:52.263Z,20.37
2019-02-24T15:05:21.936Z,22.47
2019-02-24T15:07:50.999Z,23.00
2019-02-24T15:10:20.133Z,22.37
2019-02-24T15:12:49.500Z,22.10
2019-02-24T15:15:18.804Z,20.47
2019-02-24T15:17:48.533Z,20.77
2019-02-24T15:20:20.284Z,20.43
2019-02-24T15:22:51.460Z,27.40
2019-02-24T15:25:20.652Z,24.90
2019-02-24T15:27:49.766Z,22.23
2019-02-24T15:30:22.065Z,22.43
2019-02-24T15:32:52.253Z,22.80
2019-02-24T15:35:21.529Z,26.03
2019-02-24T15:37:50.545Z,24.57
2019-02-24T15:40:19.781Z,21.77
2019-02-24T15:42:49.054Z,25.03
2019-02-24T15:45:18.443Z,26.83
2019-02-24T15:47:47.505Z,25.50
2019-02-24T15:50:18.037Z,25.37
2019-02-24T15:52:47.343Z,26.47
2019-02-24T15:55:19.710Z,27.93
2019-02-24T15:57:48.670Z,27.13
2019-02-24T16:00:17.794Z,26.50
2019-02-24T16:02:47.806Z,27.30
2019-02-24T16:05:16.799Z,27.20
2019-02-24T16:07:46.369Z,28.87
2019-02-24T16:10:16.104Z,27.90
2019-02-24T16:12:48.116Z,31.63
2019-02-24T16:15:17.685Z,30.60
2019-02-24T16:17:51.300Z,31.90
2019-02-24T16:20:27.754Z,31.07
2019-02-24T16:22:56.745Z,33.63
2019-02-24T16:25:25.815Z,33.47
2019-02-24T16:27:57.793Z,32.23
2019-02-24T16:30:29.281Z,31.47
2019-02-24T16:33:10.216Z,36.83
2019-02-24T16:35:37.009Z,34.27
2019-02-24T16:38:10.871Z,35.37
2019-02-24T16:40:55.634Z,33.03
2019-02-24T16:43:36.924Z,34.50
2019-02-24T16:48:22.315Z,34.97
2019-02-24T16:49:21.164Z,35.97
2019-02-24T16:51:50.206Z,45.83
2019-02-24T16:54:19.150Z,37.13
2019-02-24T16:57:04.599Z,36.87
2019-02-24T16:59:33.501Z,38.10
2019-02-24T17:02:06.426Z,38.50
2019-02-24T17:04:46.908Z,38.33
2019-02-24T17:07:17.345Z,35.93
2019-02-24T17:09:51.046Z,40.60
2019-02-24T17:12:24.465Z,36.90
2019-02-24T17:14:53.753Z,37.60
2019-02-24T17:17:28.168Z,38.07
2019-02-24T17:20:19.654Z,37.37
2019-02-24T17:22:55.430Z,39.50
2019-02-24T17:25:26.270Z,40.37
2019-02-24T17:28:13.963Z,38.10
2019-02-24T17:31:07.722Z,40.63
2019-02-24T17:33:39.402Z,40.93
2019-02-24T17:36:10.285Z,38.37
2019-02-24T17:38:41.198Z,38.47
2019-02-24T17:41:15.128Z,38.57
2019-02-24T17:44:32.178Z,39.60
2019-02-24T17:47:05.318Z,41.23
2019-02-24T17:49:36.662Z,39.97
2019-02-24T17:52:08.062Z,42.23
2019-02-24T17:57:56.566Z,40.50
2019-02-24T18:03:43.670Z,40.93
2019-02-24T18:09:52.872Z,41.97
2019-02-24T18:13:34.409Z,43.73
2019-02-24T18:16:27.718Z,44.17
2019-02-24T18:19:34.374Z,42.23
2019-02-24T18:23:14.070Z,44.97
2019-02-24T18:25:44.663Z,45.37
2019-02-24T18:28:13.544Z,42.83
2019-02-24T18:30:42.585Z,45.70
2019-02-24T18:33:11.612Z,40.83
2019-02-24T18:35:40.571Z,45.27
2019-02-24T18:38:09.945Z,47.20
2019-02-24T18:40:39.072Z,44.53
2019-02-24T18:43:07.987Z,42.90
2019-02-24T18:45:36.862Z,45.57
2019-02-24T18:48:05.865Z,46.27
2019-02-24T18:50:34.848Z,42.83
2019-02-24T18:53:04.011Z,43.97
2019-02-24T18:55:33.284Z,44.60
2019-02-24T18:58:02.301Z,45.23
2019-02-24T19:00:32.636Z,49.07
2019-02-24T19:03:01.847Z,45.60
2019-02-24T19:05:30.825Z,47.33
2019-02-24T19:07:59.948Z,46.33
2019-02-24T19:10:31.794Z,46.27
2019-02-24T19:13:00.785Z,48.93
2019-02-24T19:15:30.090Z,50.83
2019-02-24T19:17:59.110Z,51.93
2019-02-24T19:20:28.126Z,53.20
2019-02-24T19:22:57.940Z,53.30
2019-02-24T19:25:27.165Z,55.60
2019-02-24T19:27:56.421Z,55.60
2019-02-24T19:30:25.625Z,60.27
2019-02-24T19:32:54.586Z,58.93
2019-02-24T19:35:23.559Z,56.23
2019-02-24T19:37:53.837Z,64.33
2019-02-24T19:40:22.952Z,62.40
2019-02-24T19:42:51.926Z,63.43
2019-02-24T19:45:20.925Z,71.97
2019-02-24T19:47:50.353Z,77.20
2019-02-24T19:50:24.818Z,87.90
2019-02-24T19:52:53.868Z,90.60
2019-02-24T19:55:22.854Z,99.37
2019-02-24T19:57:52.686Z,113.03
2019-02-24T20:00:22.467Z,103.53
2019-02-24T20:02:51.472Z,130.23
2019-02-24T20:05:20.569Z,132.73
2019-02-24T20:07:49.644Z,119.47
2019-02-24T20:10:21.481Z,119.30
2019-02-24T20:12:50.420Z,139.07
2019-02-24T20:15:19.465Z,136.87
2019-02-24T20:17:48.554Z,155.70
2019-02-24T20:20:17.789Z,144.73
2019-02-24T20:22:46.886Z,131.63
2019-02-24T20:25:16.689Z,130.30
2019-02-24T20:27:45.624Z,115.53
2019-02-24T20:30:17.278Z,125.27
2019-02-24T20:32:48.682Z,107.30
2019-02-24T20:35:18.004Z,125.77
2019-02-24T20:37:47.394Z,117.80
2019-02-24T20:40:18.725Z,131.63
2019-02-24T20:42:51.114Z,144.70
2019-02-24T20:45:21.321Z,120.33
2019-02-24T20:47:52.150Z,129.77
2019-02-24T20:50:21.671Z,151.60
2019-02-24T20:52:53.018Z,151.77
2019-02-24T20:55:40.846Z,163.33
2019-02-24T20:58:12.367Z,137.70
2019-02-24T21:00:41.925Z,208.47
2019-02-24T21:03:12.924Z,318.43
2019-02-24T21:05:42.622Z,164.47
2019-02-24T21:08:11.614Z,175.87
2019-02-24T21:10:50.995Z,187.33
2019-02-24T21:13:23.713Z,187.10
2019-02-24T21:15:56.067Z,208.57
2019-02-24T21:19:05.705Z,170.33
2019-02-24T21:21:36.114Z,247.93
2019-02-24T21:24:18.306Z,159.20
2019-02-24T21:26:47.551Z,155.43
2019-02-24T21:29:16.968Z,132.10
2019-02-24T21:31:48.766Z,152.07
2019-02-24T21:34:20.977Z,158.57
2019-02-24T21:36:51.385Z,177.63
2019-02-24T21:39:20.368Z,138.70
2019-02-24T21:41:50.194Z,148.03
2019-02-24T21:44:20.070Z,120.83
2019-02-24T21:46:50.387Z,152.10
2019-02-24T21:49:21.023Z,139.27
2019-02-24T21:51:50.614Z,147.33
2019-02-24T21:54:21.058Z,148.70
2019-02-24T21:56:50.230Z,158.97
2019-02-24T21:59:21.221Z,171.83
2019-02-24T22:01:55.863Z,157.93
2019-02-24T22:04:29.821Z,140.17
2019-02-24T22:07:00.380Z,202.57
2019-02-24T22:09:33.907Z,165.20
2019-02-24T22:12:03.794Z,209.63
2019-02-24T22:14:34.309Z,147.00
2019-02-24T22:17:04.103Z,271.90
2019-02-24T22:19:34.878Z,221.00
2019-02-24T22:22:07.363Z,149.13
2019-02-24T22:24:38.529Z,145.73
2019-02-24T22:27:08.018Z,206.07
2019-02-24T22:29:37.685Z,290.67
2019-02-24T22:32:07.929Z,162.90
2019-02-24T22:34:39.810Z,166.47
2019-02-24T22:37:09.406Z,190.80
2019-02-24T22:39:43.640Z,192.83
2019-02-24T22:42:12.840Z,162.37
2019-02-24T22:44:45.199Z,138.67
2019-02-24T22:47:16.415Z,162.57
2019-02-24T22:49:46.513Z,175.10
2019-02-24T22:52:19.409Z,137.47
2019-02-24T22:54:50.814Z,186.90
2019-02-24T22:57:20.165Z,149.33
2019-02-24T23:00:23.492Z,154.17
2019-02-24T23:02:50.430Z,166.83
2019-02-24T23:05:19.658Z,145.07
2019-02-24T23:07:50.429Z,150.27
2019-02-24T23:10:30.038Z,125.20
2019-02-24T23:13:01.005Z,139.27
2019-02-24T23:15:31.885Z,119.33
2019-02-24T23:18:34.553Z,122.10
2019-02-24T23:21:06.986Z,95.30
2019-02-24T23:23:38.862Z,64.13
2019-02-24T23:26:08.161Z,56.07
2019-02-24T23:28:37.664Z,56.07
2019-02-24T23:31:06.850Z,48.30
2019-02-24T23:33:37.433Z,48.93
2019-02-24T23:36:07.628Z,55.67
2019-02-24T23:38:40.215Z,53.50
2019-02-24T23:41:10.690Z,60.70
2019-02-24T23:43:43.375Z,55.63
2019-02-24T23:46:15.183Z,62.43
2019-02-24T23:48:46.929Z,59.80
2019-02-24T23:51:16.737Z,49.10
2019-02-24T23:53:48.356Z,61.00
2019-02-24T23:56:18.995Z,53.53
2019-02-24T23:58:48.070Z,47.40
